Time;durP1;ratioP1;P1;durP2;ratioP2;P2;SDS_P1;SDS_P2;PMS_P1;PMS_P2;Temp;Humidity;BMP_temperature;BMP_pressure;BME280_temperature;BME280_humidity;BME280_pressure;Samples;Min_cycle;Max_cycle;Signal;HPM_P1;HPM_P2
2023/09/13 00:02:19;;;;;;;2.67;2.17;;;19.00;99.90;;;;;;5020814;28;20025;-67
2023/09/13 00:04:45;;;;;;;3.58;1.88;;;19.00;99.90;;;;;;5020803;28;20120;-68
2023/09/13 00:07:10;;;;;;;4.82;2.38;;;19.10;99.90;;;;;;5020847;28;20031;-67
2023/09/13 00:09:40;;;;;;;4.35;2.28;;;19.00;99.90;;;;;;5020487;28;20036;-68
2023/09/13 00:12:09;;;;;;;3.63;2.30;;;19.00;99.90;;;;;;5021416;28;20025;-68
2023/09/13 00:14:35;;;;;;;8.60;3.03;;;19.00;99.90;;;;;;5020609;28;20017;-67
2023/09/13 00:17:00;;;;;;;3.33;2.47;;;18.90;99.90;;;;;;5037894;28;20026;-68
2023/09/13 00:19:28;;;;;;;5.32;2.80;;;18.90;99.90;;;;;;5020406;28;20124;-68
2023/09/13 00:21:54;;;;;;;4.63;3.05;;;18.90;99.90;;;;;;5037965;28;20033;-68
2023/09/13 00:24:20;;;;;;;5.15;2.60;;;18.80;99.90;;;;;;5020853;28;20168;-67
2023/09/13 00:26:45;;;;;;;3.53;2.67;;;18.70;99.90;;;;;;5020916;28;20043;-67
2023/09/13 00:29:11;;;;;;;6.18;3.00;;;18.70;99.90;;;;;;5021257;28;20093;-68
2023/09/13 00:31:37;;;;;;;6.78;2.85;;;18.50;99.90;;;;;;5020274;28;20021;-67
2023/09/13 00:34:02;;;;;;;5.78;3.63;;;18.50;99.90;;;;;;5021350;28;20026;-68
2023/09/13 00:36:28;;;;;;;6.43;3.28;;;18.50;99.90;;;;;;5021088;28;20079;-68
2023/09/13 00:38:53;;;;;;;6.00;3.20;;;18.50;99.90;;;;;;5020264;28;20052;-68
2023/09/13 00:41:19;;;;;;;5.82;2.75;;;18.50;99.90;;;;;;5021112;28;20041;-69
2023/09/13 00:43:45;;;;;;;5.13;2.67;;;18.60;99.90;;;;;;5020041;28;20036;-68
2023/09/13 00:46:11;;;;;;;5.53;2.60;;;18.70;99.90;;;;;;5020368;28;20035;-68
2023/09/13 00:48:37;;;;;;;4.78;2.55;;;18.80;99.90;;;;;;5020164;28;20033;-68
2023/09/13 00:51:03;;;;;;;4.53;2.55;;;18.80;99.90;;;;;;5020662;28;20156;-68
2023/09/13 00:53:31;;;;;;;4.93;3.13;;;18.90;99.90;;;;;;5020650;28;20036;-68
2023/09/13 00:55:58;;;;;;;5.60;2.78;;;19.00;99.90;;;;;;5020627;28;20159;-68
2023/09/13 00:58:25;;;;;;;3.88;2.95;;;19.00;99.90;;;;;;5020079;28;20092;-68
2023/09/13 01:00:55;;;;;;;6.72;2.75;;;19.00;99.90;;;;;;5020581;28;20022;-68
2023/09/13 01:03:22;;;;;;;6.05;3.15;;;19.10;99.90;;;;;;5020502;28;20036;-68
2023/09/13 01:05:52;;;;;;;4.10;2.72;;;19.10;99.90;;;;;;5020486;28;20026;-68
2023/09/13 01:08:19;;;;;;;5.80;3.70;;;19.10;99.90;;;;;;5019796;28;20053;-68
2023/09/13 01:10:45;;;;;;;8.55;4.57;;;19.10;99.90;;;;;;5019760;28;20080;-68
2023/09/13 01:13:11;;;;;;;9.40;4.93;;;19.00;99.90;;;;;;5019771;28;20018;-68
2023/09/13 01:15:44;;;;;;;7.75;4.63;;;19.00;99.90;;;;;;5020655;28;20061;-68
2023/09/13 01:18:17;;;;;;;8.05;4.75;;;18.90;99.90;;;;;;5020496;28;20018;-68
2023/09/13 01:21:09;;;;;;;7.57;4.88;;;18.90;99.90;;;;;;5019986;28;20025;-68
2023/09/13 01:24:15;;;;;;;9.38;5.05;;;18.80;99.90;;;;;;5019724;28;20048;-68
2023/09/13 01:26:44;;;;;;;11.18;4.93;;;18.70;99.90;;;;;;4987110;28;20117;-68
2023/09/13 01:29:15;;;;;;;7.68;5.18;;;18.70;99.90;;;;;;5019349;28;20056;-68
2023/09/13 01:31:42;;;;;;;8.48;4.88;;;18.70;99.90;;;;;;5020792;28;20133;-68
2023/09/13 01:34:08;;;;;;;7.72;5.20;;;18.70;99.90;;;;;;5023744;28;20022;-69
2023/09/13 01:36:33;;;;;;;9.48;4.93;;;18.60;99.90;;;;;;5023925;28;20026;-68
2023/09/13 01:39:00;;;;;;;9.20;5.13;;;18.60;99.90;;;;;;5023562;28;20030;-68
2023/09/13 01:41:56;;;;;;;10.32;5.95;;;18.70;99.90;;;;;;5023424;28;20025;-68
2023/09/13 01:44:21;;;;;;;9.48;5.30;;;18.70;99.90;;;;;;5022351;28;20041;-68
2023/09/13 01:46:49;;;;;;;9.23;5.82;;;18.80;99.90;;;;;;5023578;28;20036;-68
2023/09/13 01:49:18;;;;;;;11.32;5.90;;;18.80;99.90;;;;;;5023416;28;20021;-68
2023/09/13 01:51:44;;;;;;;9.18;5.45;;;18.80;99.90;;;;;;5023505;28;20053;-68
2023/09/13 01:54:22;;;;;;;11.40;5.43;;;18.90;99.90;;;;;;5024059;28;20021;-68
2023/09/13 01:56:47;;;;;;;10.10;5.57;;;18.90;99.90;;;;;;5023536;28;20053;-68
2023/09/13 01:59:13;;;;;;;15.48;6.88;;;18.90;99.90;;;;;;5023356;28;20025;-68
2023/09/13 02:01:38;;;;;;;17.75;8.02;;;19.00;99.90;;;;;;5023329;28;20037;-68
2023/09/13 02:04:05;;;;;;;16.60;7.93;;;18.90;99.90;;;;;;5023407;28;20057;-68
2023/09/13 02:06:31;;;;;;;44.13;10.52;;;18.90;99.90;;;;;;5023292;28;20071;-68
2023/09/13 02:08:56;;;;;;;30.98;10.13;;;18.80;99.90;;;;;;5023754;28;20022;-68
2023/09/13 02:11:22;;;;;;;43.40;11.85;;;18.70;99.90;;;;;;5023257;28;20013;-68
2023/09/13 02:13:50;;;;;;;24.73;10.27;;;18.70;99.90;;;;;;5023192;28;20021;-68
2023/09/13 02:16:20;;;;;;;19.48;8.63;;;18.60;99.90;;;;;;5022869;28;20032;-68
2023/09/13 02:18:46;;;;;;;14.98;7.03;;;18.60;99.90;;;;;;5022709;28;20037;-68
2023/09/13 02:21:11;;;;;;;40.88;11.02;;;18.60;99.90;;;;;;5023027;28;20025;-68
2023/09/13 02:23:38;;;;;;;41.00;10.93;;;18.60;99.90;;;;;;5022596;28;20029;-68
2023/09/13 02:26:03;;;;;;;34.90;9.70;;;18.40;99.90;;;;;;5022860;28;20030;-68
2023/09/13 02:28:29;;;;;;;46.60;11.30;;;18.20;99.90;;;;;;5023476;28;20079;-68
2023/09/13 02:30:54;;;;;;;56.97;12.75;;;18.10;99.90;;;;;;5022980;28;20041;-68
2023/09/13 02:33:20;;;;;;;22.15;8.18;;;18.20;99.90;;;;;;5022278;28;20045;-68
2023/09/13 02:35:47;;;;;;;46.83;11.65;;;18.30;99.90;;;;;;5023234;28;20072;-68
2023/09/13 02:38:12;;;;;;;37.38;10.95;;;18.30;99.90;;;;;;5022706;28;20021;-68
2023/09/13 02:40:38;;;;;;;29.55;9.82;;;18.40;99.90;;;;;;5022498;28;20029;-68
2023/09/13 02:43:04;;;;;;;10.45;6.07;;;18.50;99.90;;;;;;5021351;28;20024;-68
2023/09/13 02:45:29;;;;;;;14.30;6.93;;;18.40;99.90;;;;;;5023313;28;20051;-68
2023/09/13 02:47:55;;;;;;;21.60;6.85;;;18.50;99.90;;;;;;5022238;28;20029;-68
2023/09/13 02:50:21;;;;;;;25.52;8.93;;;18.50;99.90;;;;;;5022596;28;20025;-68
2023/09/13 02:52:46;;;;;;;19.88;9.07;;;18.50;99.90;;;;;;5022364;28;20013;-68
2023/09/13 02:55:12;;;;;;;16.55;8.18;;;18.50;99.90;;;;;;5022296;28;20025;-68
2023/09/13 02:57:37;;;;;;;18.95;7.78;;;18.50;99.90;;;;;;5022063;28;20068;-68
2023/09/13 03:00:05;;;;;;;13.70;6.85;;;18.50;99.90;;;;;;5022009;28;20028;-68
2023/09/13 03:02:31;;;;;;;14.05;7.07;;;18.50;99.90;;;;;;5022005;28;20021;-68
2023/09/13 03:04:56;;;;;;;22.33;9.20;;;18.40;99.90;;;;;;5021944;28;20044;-68
2023/09/13 03:07:22;;;;;;;11.77;6.60;;;18.50;99.90;;;;;;5022014;28;20079;-68
2023/09/13 03:09:53;;;;;;;10.43;6.45;;;18.50;99.90;;;;;;5022749;28;20132;-68
2023/09/13 03:12:19;;;;;;;13.20;6.55;;;18.50;99.90;;;;;;5022087;28;20025;-68
2023/09/13 03:14:44;;;;;;;11.02;5.93;;;18.50;99.90;;;;;;5022087;28;20029;-68
2023/09/13 03:17:13;;;;;;;17.73;8.75;;;18.50;99.90;;;;;;5022088;28;20040;-68
2023/09/13 03:19:39;;;;;;;13.57;6.65;;;18.50;99.90;;;;;;5022133;28;20033;-68
2023/09/13 03:22:04;;;;;;;18.55;8.43;;;18.50;99.90;;;;;;5022574;28;20021;-68
2023/09/13 03:24:30;;;;;;;24.40;10.43;;;18.50;99.90;;;;;;5021839;28;20022;-68
2023/09/13 03:26:56;;;;;;;19.85;9.02;;;18.50;99.90;;;;;;5021407;28;20029;-68
2023/09/13 03:29:22;;;;;;;15.93;7.25;;;18.50;99.90;;;;;;5021657;28;20048;-68
2023/09/13 03:31:47;;;;;;;25.98;10.52;;;18.50;99.90;;;;;;5021268;28;20029;-68
2023/09/13 03:34:13;;;;;;;23.35;10.80;;;18.50;99.90;;;;;;5022233;28;20018;-68
2023/09/13 03:36:39;;;;;;;18.23;8.35;;;18.40;99.90;;;;;;5021937;28;20045;-68
2023/09/13 03:39:05;;;;;;;22.23;8.52;;;18.40;99.90;;;;;;5021953;28;20032;-68
2023/09/13 03:41:31;;;;;;;16.05;8.40;;;18.50;99.90;;;;;;5021990;28;20116;-68
2023/09/13 03:43:56;;;;;;;13.23;7.20;;;18.50;99.90;;;;;;5021420;28;20026;-68
2023/09/13 03:46:22;;;;;;;26.65;10.93;;;18.50;99.90;;;;;;5021859;28;20116;-68
2023/09/13 03:48:47;;;;;;;16.58;9.43;;;18.50;99.90;;;;;;5021345;28;20033;-68
2023/09/13 03:51:14;;;;;;;21.98;10.35;;;18.40;99.90;;;;;;5021020;28;20048;-68
2023/09/13 03:53:39;;;;;;;28.33;11.27;;;18.40;99.90;;;;;;5021228;28;20085;-68
2023/09/13 03:56:05;;;;;;;28.80;11.63;;;18.50;99.90;;;;;;5021638;28;20060;-68
2023/09/13 03:58:34;;;;;;;33.38;11.35;;;18.40;99.90;;;;;;5021068;28;20017;-68
2023/09/13 04:00:59;;;;;;;26.63;11.45;;;18.40;99.90;;;;;;5021188;28;20045;-68
2023/09/13 04:03:26;;;;;;;41.03;12.52;;;18.40;99.90;;;;;;5021089;28;20032;-68
2023/09/13 04:05:52;;;;;;;38.75;12.88;;;18.30;99.90;;;;;;5021662;28;20120;-68
2023/09/13 04:08:17;;;;;;;54.30;14.43;;;18.30;99.90;;;;;;5021476;28;20075;-68
2023/09/13 04:10:43;;;;;;;45.65;13.63;;;18.20;99.90;;;;;;5021545;28;20026;-68
2023/09/13 04:13:08;;;;;;;30.00;13.60;;;18.20;99.90;;;;;;5020868;28;20099;-68
2023/09/13 04:15:34;;;;;;;41.13;13.73;;;18.30;99.90;;;;;;5020930;28;20108;-68
2023/09/13 04:18:00;;;;;;;45.10;14.50;;;18.20;99.90;;;;;;5021404;28;20022;-68
2023/09/13 04:20:25;;;;;;;33.25;13.18;;;18.20;99.90;;;;;;5020478;28;20029;-68
2023/09/13 04:22:51;;;;;;;48.42;14.68;;;18.30;99.90;;;;;;5020777;28;20083;-68
2023/09/13 04:25:17;;;;;;;41.85;15.60;;;18.30;99.90;;;;;;5020956;28;20022;-68
2023/09/13 04:27:46;;;;;;;38.47;14.55;;;18.20;99.90;;;;;;5020633;28;20055;-68
2023/09/13 04:30:14;;;;;;;47.03;15.02;;;18.20;99.90;;;;;;5020696;28;20117;-68
2023/09/13 04:32:39;;;;;;;50.63;16.63;;;18.20;99.90;;;;;;5020391;28;20026;-68
2023/09/13 04:35:06;;;;;;;63.60;17.73;;;18.20;99.90;;;;;;5020299;28;20085;-68
2023/09/13 04:37:32;;;;;;;54.42;16.15;;;18.20;99.90;;;;;;5021258;28;20045;-68
2023/09/13 04:39:58;;;;;;;25.50;12.55;;;18.20;99.90;;;;;;5020307;28;20033;-68
2023/09/13 04:42:23;;;;;;;27.02;13.13;;;18.20;99.90;;;;;;5020425;28;20021;-68
2023/09/13 04:44:49;;;;;;;34.50;14.02;;;18.30;99.90;;;;;;5020474;28;20025;-68
2023/09/13 04:47:14;;;;;;;19.70;10.48;;;18.40;99.90;;;;;;5020621;28;20057;-68
2023/09/13 04:49:40;;;;;;;20.27;10.77;;;18.40;99.90;;;;;;5020441;28;20033;-68
2023/09/13 04:52:09;;;;;;;21.33;11.20;;;18.40;99.90;;;;;;5020206;28;20026;-68
2023/09/13 04:54:36;;;;;;;15.40;9.25;;;18.50;99.90;;;;;;5020212;28;20028;-68
2023/09/13 04:57:02;;;;;;;20.52;11.02;;;18.50;99.90;;;;;;5020682;28;20025;-68
2023/09/13 04:59:44;;;;;;;28.27;12.18;;;18.50;99.90;;;;;;5019959;28;20032;-68
2023/09/13 05:02:14;;;;;;;50.13;15.60;;;18.60;99.90;;;;;;5020361;28;20079;-68
2023/09/13 05:04:39;;;;;;;56.33;17.73;;;18.50;99.90;;;;;;5020793;28;20053;-68
2023/09/13 05:07:06;;;;;;;68.55;19.77;;;18.50;99.90;;;;;;5002421;28;20030;-68
2023/09/13 05:09:32;;;;;;;75.13;20.85;;;18.40;99.90;;;;;;5002125;28;20044;-68
2023/09/13 05:11:59;;;;;;;72.18;20.52;;;18.40;99.90;;;;;;5017388;28;20029;-68
2023/09/13 05:14:25;;;;;;;64.65;19.38;;;18.40;99.90;;;;;;5019528;28;20025;-68
2023/09/13 05:16:50;;;;;;;61.28;18.52;;;18.30;99.90;;;;;;5003461;28;20022;-68
2023/09/13 05:19:17;;;;;;;60.90;19.42;;;18.30;99.90;;;;;;5000335;28;20022;-68
2023/09/13 05:21:43;;;;;;;65.93;20.65;;;18.30;99.90;;;;;;5000071;28;20113;-68
2023/09/13 05:24:09;;;;;;;74.45;21.17;;;18.20;99.90;;;;;;4999979;28;20183;-68
2023/09/13 05:26:35;;;;;;;74.05;20.85;;;18.20;99.90;;;;;;5000794;28;20022;-69
2023/09/13 05:29:02;;;;;;;87.65;22.90;;;18.30;99.90;;;;;;4999868;28;20033;-69
2023/09/13 05:31:27;;;;;;;97.07;24.55;;;18.30;99.90;;;;;;4999968;28;20046;-69
2023/09/13 05:33:53;;;;;;;70.35;21.08;;;18.40;99.90;;;;;;5030913;23;20042;-68
2023/09/13 05:36:18;;;;;;;86.22;25.05;;;18.30;99.90;;;;;;5036774;28;20053;-68
2023/09/13 05:38:44;;;;;;;80.97;24.35;;;18.30;99.90;;;;;;5019104;28;20030;-68
2023/09/13 05:41:11;;;;;;;79.45;23.05;;;18.40;99.90;;;;;;5019460;28;20021;-68
2023/09/13 05:43:38;;;;;;;91.53;25.42;;;18.40;99.90;;;;;;5019681;28;20022;-68
2023/09/13 05:46:04;;;;;;;41.85;18.23;;;18.40;99.90;;;;;;5019419;28;20022;-69
2023/09/13 05:48:30;;;;;;;72.40;20.75;;;18.50;99.90;;;;;;5037125;28;20076;-68
2023/09/13 05:50:56;;;;;;;70.50;21.02;;;18.60;99.90;;;;;;5019368;28;20021;-68
2023/09/13 05:53:21;;;;;;;68.43;21.38;;;18.50;99.90;;;;;;5019565;28;20091;-69
2023/09/13 05:55:47;;;;;;;53.65;19.65;;;18.50;99.90;;;;;;5036842;28;20026;-69
2023/09/13 05:58:13;;;;;;;67.85;21.35;;;18.60;99.90;;;;;;5019344;28;20022;-69
2023/09/13 06:00:42;;;;;;;49.53;19.27;;;18.60;99.90;;;;;;5019321;28;20061;-68
2023/09/13 06:03:07;;;;;;;64.88;20.27;;;18.70;99.90;;;;;;5019321;28;20041;-68
2023/09/13 06:05:34;;;;;;;61.67;20.05;;;18.60;99.90;;;;;;5020144;28;20029;-69
2023/09/13 06:07:59;;;;;;;51.83;20.73;;;18.60;99.90;;;;;;5019567;28;20108;-69
2023/09/13 06:10:25;;;;;;;50.35;19.58;;;18.70;99.90;;;;;;5019076;28;20124;-69
2023/09/13 06:12:50;;;;;;;60.80;20.88;;;18.70;99.90;;;;;;5020026;28;20061;-69
2023/09/13 06:15:16;;;;;;;69.20;22.73;;;18.70;99.90;;;;;;5019119;28;20018;-69
2023/09/13 06:17:41;;;;;;;43.45;18.52;;;18.70;99.90;;;;;;5020125;28;20018;-69
2023/09/13 06:20:07;;;;;;;63.20;20.73;;;18.80;99.90;;;;;;5023026;28;20029;-69
2023/09/13 06:22:33;;;;;;;53.63;19.92;;;18.80;99.90;;;;;;5022842;28;20026;-69
2023/09/13 06:24:59;;;;;;;43.95;18.65;;;18.80;99.90;;;;;;5022743;28;20021;-69
2023/09/13 06:27:24;;;;;;;37.70;16.77;;;18.80;99.90;;;;;;5022594;28;20029;-69
2023/09/13 06:29:50;;;;;;;44.17;17.83;;;18.90;99.90;;;;;;5022845;28;20026;-69
2023/09/13 06:32:16;;;;;;;25.83;13.55;;;18.90;99.90;;;;;;5023489;28;20021;-68
2023/09/13 06:34:41;;;;;;;31.90;14.80;;;18.90;99.90;;;;;;5022363;28;20038;-68
2023/09/13 06:37:07;;;;;;;40.72;18.05;;;19.00;99.90;;;;;;5022342;28;20025;-68
2023/09/13 06:39:34;;;;;;;41.67;17.50;;;19.10;99.90;;;;;;5022510;28;20031;-68
2023/09/13 06:42:00;;;;;;;40.72;17.63;;;19.10;99.90;;;;;;5039811;28;20136;-68
2023/09/13 06:44:26;;;;;;;25.95;13.80;;;19.10;99.90;;;;;;5022281;28;20065;-68
2023/09/13 06:46:51;;;;;;;31.27;15.15;;;19.20;99.90;;;;;;5022546;28;20051;-68
2023/09/13 06:49:17;;;;;;;36.85;16.23;;;19.30;99.90;;;;;;5022082;28;20025;-68
2023/09/13 06:51:42;;;;;;;40.97;17.92;;;19.30;99.90;;;;;;5022167;28;20025;-68
2023/09/13 06:54:08;;;;;;;26.83;13.63;;;19.20;99.90;;;;;;5039525;28;20029;-68
2023/09/13 06:56:33;;;;;;;39.63;18.00;;;19.20;99.90;;;;;;5021961;28;20019;-68
2023/09/13 06:58:59;;;;;;;40.58;17.50;;;19.30;99.90;;;;;;5039573;28;20025;-68
2023/09/13 07:01:25;;;;;;;34.75;16.15;;;19.30;99.90;;;;;;5039846;28;20030;-70
2023/09/13 07:03:51;;;;;;;32.53;14.25;;;19.40;99.90;;;;;;5039400;28;20017;-70
2023/09/13 07:06:16;;;;;;;58.85;20.75;;;19.50;99.90;;;;;;5039195;28;20057;-70
2023/09/13 07:08:42;;;;;;;27.42;14.15;;;19.40;99.90;;;;;;5022044;28;20041;-70
2023/09/13 07:11:08;;;;;;;35.45;15.50;;;19.40;99.90;;;;;;5039184;28;20021;-70
2023/09/13 07:13:33;;;;;;;30.95;15.30;;;19.40;99.90;;;;;;5039209;28;20025;-70
2023/09/13 07:15:59;;;;;;;44.90;18.65;;;19.40;99.90;;;;;;5039020;28;20092;-70
2023/09/13 07:18:24;;;;;;;48.55;18.35;;;19.40;99.90;;;;;;5022562;28;20108;-70
2023/09/13 07:20:50;;;;;;;57.85;20.95;;;19.40;99.90;;;;;;5038971;28;20033;-70
2023/09/13 07:23:15;;;;;;;53.72;19.75;;;19.40;99.90;;;;;;5039143;28;20075;-70
2023/09/13 07:25:41;;;;;;;32.00;16.02;;;19.40;99.90;;;;;;5021770;28;20143;-70
2023/09/13 07:28:07;;;;;;;28.42;14.45;;;19.40;99.90;;;;;;5038915;28;20049;-70
2023/09/13 07:30:32;;;;;;;53.67;18.95;;;19.40;99.90;;;;;;5038109;28;20040;-70
2023/09/13 07:33:00;;;;;;;27.77;15.30;;;19.50;99.90;;;;;;5021493;28;20028;-69
2023/09/13 07:35:26;;;;;;;28.35;14.02;;;19.50;99.90;;;;;;5039137;28;20036;-70
2023/09/13 07:37:51;;;;;;;42.13;15.85;;;19.60;99.90;;;;;;5039044;28;20025;-70
2023/09/13 07:40:17;;;;;;;41.40;17.80;;;19.70;99.90;;;;;;5021586;28;20028;-70
2023/09/13 07:42:43;;;;;;;29.98;13.70;;;19.70;99.90;;;;;;5038953;28;20101;-70
2023/09/13 07:45:08;;;;;;;35.90;16.33;;;19.70;99.90;;;;;;5021044;28;20052;-70
2023/09/13 07:47:34;;;;;;;39.03;15.88;;;19.70;99.90;;;;;;5021195;28;20028;-69
2023/09/13 07:49:59;;;;;;;36.72;17.73;;;19.80;99.90;;;;;;5021903;28;20088;-69
2023/09/13 07:52:25;;;;;;;25.00;14.00;;;19.80;99.90;;;;;;5021659;28;20112;-69
2023/09/13 07:54:51;;;;;;;29.40;14.13;;;19.90;99.90;;;;;;5021095;28;20025;-69
2023/09/13 07:57:17;;;;;;;28.33;14.23;;;20.00;99.90;;;;;;5021239;28;20018;-69
2023/09/13 07:59:43;;;;;;;26.10;13.05;;;20.10;99.90;;;;;;5020848;28;20052;-69
2023/09/13 08:02:08;;;;;;;25.20;13.73;;;20.10;99.90;;;;;;5021703;28;20017;-69
2023/09/13 08:04:34;;;;;;;27.73;15.38;;;20.20;99.90;;;;;;5021477;28;20155;-69
2023/09/13 08:07:00;;;;;;;23.08;12.38;;;20.30;99.90;;;;;;5038454;28;20033;-69
2023/09/13 08:09:26;;;;;;;24.52;13.95;;;20.30;99.90;;;;;;5020711;28;20116;-70
2023/09/13 08:11:52;;;;;;;22.58;13.43;;;20.30;99.90;;;;;;5038101;28;20029;-69
2023/09/13 08:14:18;;;;;;;22.05;12.70;;;20.30;99.90;;;;;;5021215;28;20018;-70
2023/09/13 08:16:44;;;;;;;24.45;13.38;;;20.30;99.90;;;;;;5020987;28;20039;-71
2023/09/13 08:19:09;;;;;;;25.40;13.52;;;20.30;99.90;;;;;;5020609;28;20112;-70
2023/09/13 08:21:35;;;;;;;22.58;12.95;;;20.30;99.90;;;;;;5037847;28;20052;-69
2023/09/13 08:24:01;;;;;;;28.42;14.18;;;20.30;99.90;;;;;;5020502;28;20044;-69
2023/09/13 08:26:26;;;;;;;30.15;14.85;;;20.30;99.90;;;;;;5020425;28;20052;-69
2023/09/13 08:28:52;;;;;;;31.48;15.27;;;20.30;99.90;;;;;;5038033;28;20018;-69
2023/09/13 08:31:18;;;;;;;26.88;15.45;;;20.30;99.90;;;;;;5020393;28;20028;-70
2023/09/13 08:33:43;;;;;;;33.88;14.38;;;20.30;99.90;;;;;;5037623;28;20038;-69
2023/09/13 08:36:09;;;;;;;29.15;15.20;;;20.40;99.90;;;;;;5020541;28;20029;-69
2023/09/13 08:38:34;;;;;;;30.73;15.13;;;20.40;99.90;;;;;;5020548;28;20025;-69
2023/09/13 08:41:01;;;;;;;26.52;15.20;;;20.30;99.90;;;;;;5020145;28;20171;-69
2023/09/13 08:43:28;;;;;;;26.42;14.13;;;20.20;99.90;;;;;;5037640;28;20022;-70
2023/09/13 08:45:54;;;;;;;26.83;15.23;;;20.20;99.90;;;;;;5020542;28;20029;-70
2023/09/13 08:48:21;;;;;;;33.50;16.20;;;20.20;99.90;;;;;;5020303;28;20025;-70
2023/09/13 08:50:48;;;;;;;31.90;15.20;;;20.20;99.90;;;;;;5019873;28;20052;-70
2023/09/13 08:53:16;;;;;;;29.42;15.90;;;20.20;99.90;;;;;;5019991;28;20022;-70
2023/09/13 08:55:43;;;;;;;27.35;15.20;;;20.30;99.90;;;;;;5019958;28;20033;-70
2023/09/13 08:58:09;;;;;;;28.90;16.33;;;20.30;99.90;;;;;;5020039;28;20033;-70
2023/09/13 09:00:38;;;;;;;31.27;17.27;;;20.40;99.90;;;;;;5037580;28;20032;-70
2023/09/13 09:03:06;;;;;;;26.13;15.90;;;20.30;99.90;;;;;;5019803;28;20030;-70
2023/09/13 09:05:33;;;;;;;28.73;15.15;;;20.40;99.90;;;;;;5037240;28;20035;-71
2023/09/13 09:08:02;;;;;;;28.80;15.23;;;20.50;99.90;;;;;;5037016;28;20025;-70
2023/09/13 09:10:29;;;;;;;26.83;14.88;;;20.60;99.90;;;;;;5019704;28;20082;-70
2023/09/13 09:12:57;;;;;;;30.02;15.50;;;20.70;99.90;;;;;;5036920;28;20052;-70
2023/09/13 09:15:24;;;;;;;29.60;17.35;;;20.80;99.90;;;;;;5020600;28;20024;-70
2023/09/13 09:17:52;;;;;;;28.88;15.30;;;20.90;99.90;;;;;;5019780;28;20017;-70
2023/09/13 09:20:19;;;;;;;28.90;16.10;;;20.90;99.90;;;;;;5037299;28;20033;-70
2023/09/13 09:22:45;;;;;;;28.58;15.65;;;21.00;99.90;;;;;;5036952;28;20040;-70
2023/09/13 09:25:12;;;;;;;30.52;15.93;;;21.00;99.90;;;;;;5019928;28;20029;-70
2023/09/13 09:27:42;;;;;;;28.15;16.10;;;21.00;99.90;;;;;;5019887;28;20076;-70
2023/09/13 09:30:14;;;;;;;27.42;14.02;;;21.00;99.90;;;;;;5019572;28;20030;-70
2023/09/13 09:32:40;;;;;;;30.25;16.65;;;21.10;99.90;;;;;;5037229;28;20022;-70
2023/09/13 09:35:07;;;;;;;31.00;15.95;;;21.00;99.90;;;;;;5019110;28;20036;-70
2023/09/13 09:37:34;;;;;;;30.23;17.20;;;20.90;99.90;;;;;;5018963;28;20017;-70
2023/09/13 09:40:01;;;;;;;26.77;15.45;;;20.80;99.90;;;;;;5018486;28;20022;-70
2023/09/13 09:42:29;;;;;;;27.35;15.95;;;20.90;99.90;;;;;;5019625;28;20029;-70
2023/09/13 09:44:55;;;;;;;23.67;15.57;;;21.00;99.90;;;;;;5018425;28;20083;-70
2023/09/13 09:47:20;;;;;;;24.10;13.98;;;21.00;99.90;;;;;;5018891;28;20025;-71
2023/09/13 09:49:47;;;;;;;24.80;15.50;;;21.20;99.90;;;;;;5018644;28;20079;-71
2023/09/13 09:52:14;;;;;;;25.38;15.27;;;21.40;99.90;;;;;;5018645;28;20052;-70
2023/09/13 09:54:45;;;;;;;24.10;14.48;;;21.60;99.90;;;;;;5021843;28;20072;-71
2023/09/13 09:57:11;;;;;;;24.33;15.48;;;21.80;99.90;;;;;;5039935;28;20032;-70
2023/09/13 09:59:37;;;;;;;24.70;15.63;;;21.90;99.90;;;;;;5021828;28;20025;-70
2023/09/13 10:02:03;;;;;;;21.75;14.32;;;22.10;99.90;;;;;;5022257;28;20121;-69
2023/09/13 10:04:28;;;;;;;21.35;15.27;;;22.30;99.90;;;;;;5039121;28;20057;-69
2023/09/13 10:06:55;;;;;;;22.63;14.77;;;22.20;99.90;;;;;;5021805;28;20029;-69
2023/09/13 10:09:21;;;;;;;20.52;13.93;;;22.00;99.90;;;;;;5021755;28;20029;-69
2023/09/13 10:11:47;;;;;;;22.20;14.48;;;21.90;99.90;;;;;;5021791;28;20075;-69
2023/09/13 10:14:25;;;;;;;26.08;17.00;;;22.10;99.90;;;;;;5021598;28;20028;-69
2023/09/13 10:16:52;;;;;;;22.55;15.27;;;22.10;99.90;;;;;;5022236;28;20022;-69
2023/09/13 10:19:18;;;;;;;20.58;13.55;;;22.10;99.90;;;;;;5021608;28;20022;-69
2023/09/13 10:21:43;;;;;;;20.20;12.75;;;22.00;99.90;;;;;;5021536;28;20033;-69
2023/09/13 10:24:10;;;;;;;19.23;13.40;;;21.80;99.90;;;;;;5021739;28;20052;-70
2023/09/13 10:26:37;;;;;;;16.90;11.10;;;21.70;99.90;;;;;;5038813;28;20033;-70
2023/09/13 10:29:20;;;;;;;20.20;12.13;;;21.80;99.90;;;;;;5021224;28;20021;-71
2023/09/13 10:31:48;;;;;;;18.58;12.32;;;21.80;99.90;;;;;;5038829;28;20032;-70
2023/09/13 10:34:23;;;;;;;18.08;11.95;;;21.70;99.90;;;;;;5002895;28;1042763;-70
2023/09/13 10:36:55;;;;;;;20.10;11.32;;;21.80;99.90;;;;;;5039947;28;20032;-70
2023/09/13 10:39:30;;;;;;;20.73;12.25;;;22.00;99.90;;;;;;5039829;28;20021;-70
2023/09/13 10:42:03;;;;;;;15.15;10.52;;;22.00;99.90;;;;;;5039850;28;20034;-70
2023/09/13 10:44:30;;;;;;;18.77;11.25;;;22.30;99.90;;;;;;5039669;28;20025;-70
2023/09/13 10:46:56;;;;;;;18.15;11.77;;;22.40;99.90;;;;;;5039564;28;20037;-71
2023/09/13 10:49:23;;;;;;;20.38;11.80;;;22.40;99.90;;;;;;5022219;28;20025;-70
2023/09/13 10:51:50;;;;;;;25.00;11.77;;;22.40;99.90;;;;;;5022927;28;20048;-70
2023/09/13 10:54:18;;;;;;;16.63;10.73;;;22.30;99.90;;;;;;5039511;28;20087;-70
2023/09/13 10:56:43;;;;;;;18.25;11.10;;;22.20;99.90;;;;;;5022164;28;20072;-70
2023/09/13 10:59:12;;;;;;;16.58;9.95;;;22.10;99.90;;;;;;5039613;28;20022;-70
2023/09/13 11:01:45;;;;;;;13.73;9.48;;;22.10;99.90;;;;;;5039377;28;20037;-70
2023/09/13 11:04:23;;;;;;;18.15;8.80;;;22.10;99.90;;;;;;5038576;28;20109;-70
2023/09/13 11:06:50;;;;;;;15.20;9.38;;;22.30;99.90;;;;;;5022237;28;20061;-70
2023/09/13 11:09:26;;;;;;;13.60;8.50;;;22.40;99.90;;;;;;5039388;28;20029;-70
2023/09/13 11:11:52;;;;;;;11.95;7.88;;;22.70;99.90;;;;;;5039266;28;20025;-70
2023/09/13 11:14:27;;;;;;;9.57;7.25;;;23.10;99.90;;;;;;5021840;28;20021;-70
2023/09/13 11:16:53;;;;;;;10.48;7.22;;;23.40;99.90;;;;;;5039221;28;20029;-70
2023/09/13 11:19:27;;;;;;;9.20;7.05;;;23.90;99.90;;;;;;5039160;28;20030;-71
2023/09/13 11:22:00;;;;;;;11.40;6.60;;;24.40;99.90;;;;;;5039422;28;20032;-70
2023/09/13 11:24:36;;;;;;;7.30;6.38;;;24.60;99.90;;;;;;5022301;28;20033;-70
2023/09/13 11:27:11;;;;;;;9.02;6.25;;;24.40;99.90;;;;;;5022380;28;20036;-70
2023/09/13 11:29:50;;;;;;;9.07;6.38;;;24.10;99.90;;;;;;5038892;28;20036;-70
2023/09/13 11:32:21;;;;;;;10.95;6.07;;;23.90;99.90;;;;;;5021242;28;20116;-70
2023/09/13 11:34:57;;;;;;;11.07;7.55;;;23.60;99.90;;;;;;5062253;22;20053;-63
2023/09/13 11:37:25;;;;;;;10.50;7.72;;;23.80;99.90;;;;;;5038816;28;20032;-64
2023/09/13 11:40:11;;;;;;;9.88;6.80;;;24.20;99.90;;;;;;5038920;28;20049;-63
2023/09/13 11:42:37;;;;;;;13.43;7.50;;;24.40;99.90;;;;;;5021210;28;20027;-63
2023/09/13 11:45:07;;;;;;;10.15;6.97;;;24.30;99.90;;;;;;5021140;28;20049;-64
2023/09/13 11:47:36;;;;;;;9.18;6.18;;;24.30;99.90;;;;;;5022094;28;20029;-63
2023/09/13 11:50:03;;;;;;;9.82;7.60;;;24.40;99.90;;;;;;5021079;28;20022;-63
2023/09/13 11:53:11;;;;;;;10.38;7.28;;;24.40;99.90;;;;;;5021173;28;20024;-64
2023/09/13 11:55:44;;;;;;;8.65;7.72;;;24.70;99.90;;;;;;5020938;28;20028;-64
2023/09/13 11:58:16;;;;;;;9.23;7.18;;;25.50;99.90;;;;;;5020968;28;20057;-64
2023/09/13 12:00:42;;;;;;;10.82;7.18;;;25.50;99.90;;;;;;5038253;28;20032;-64
2023/09/13 12:03:07;;;;;;;7.45;6.65;;;26.40;99.90;;;;;;5021142;28;20124;-64
2023/09/13 12:05:35;;;;;;;9.32;6.53;;;26.80;99.90;;;;;;5038074;28;20064;-63
2023/09/13 12:08:02;;;;;;;10.45;7.18;;;27.20;99.90;;;;;;5038180;28;20033;-64
2023/09/13 12:10:37;;;;;;;12.80;7.07;;;27.00;99.90;;;;;;5021323;28;20025;-63
2023/09/13 12:13:03;;;;;;;8.38;6.60;;;26.80;99.90;;;;;;5038344;28;20022;-64
2023/09/13 12:15:29;;;;;;;6.53;5.65;;;26.50;99.90;;;;;;5020338;28;20026;-64
2023/09/13 12:18:02;;;;;;;8.52;5.85;;;25.90;99.90;;;;;;5020537;28;20021;-64
2023/09/13 12:20:31;;;;;;;6.90;5.40;;;26.10;99.90;;;;;;5020931;28;20061;-64
2023/09/13 12:22:57;;;;;;;7.55;5.28;;;27.20;99.90;;;;;;5038097;28;20041;-64
2023/09/13 12:25:24;;;;;;;7.85;5.50;;;26.90;99.90;;;;;;5020411;28;20029;-64
2023/09/13 12:27:51;;;;;;;7.70;5.95;;;26.50;99.90;;;;;;5020871;28;20025;-64
2023/09/13 12:30:17;;;;;;;8.30;6.05;;;26.50;99.90;;;;;;5021017;28;20026;-64
2023/09/13 12:32:44;;;;;;;8.07;5.85;;;26.20;99.90;;;;;;5020777;28;20029;-64
2023/09/13 12:35:11;;;;;;;7.90;5.95;;;25.90;99.90;;;;;;5020012;28;20044;-64